Time;durP1;ratioP1;P1;durP2;ratioP2;P2;SDS_P1;SDS_P2;PMS_P1;PMS_P2;Temp;Humidity;BMP_temperature;BMP_pressure;BME280_temperature;BME280_humidity;BME280_pressure;Samples;Min_cycle;Max_cycle;Signal;HPM_P1;HPM_P2
2022/11/15 00:02:24;;;;;;;23.77;18.50;;;8.10;99.90;;;;;;5070244;28;20044;-51
2022/11/15 00:05:10;;;;;;;24.55;19.63;;;8.00;99.90;;;;;;5036535;28;20028;-50
2022/11/15 00:07:57;;;;;;;25.73;18.05;;;8.10;99.90;;;;;;5069772;28;20097;-54
2022/11/15 00:10:43;;;;;;;24.85;17.92;;;8.10;99.90;;;;;;5064419;28;20029;-52
2022/11/15 00:13:29;;;;;;;23.58;18.13;;;8.10;99.90;;;;;;5068900;28;20028;-57
2022/11/15 00:16:15;;;;;;;23.92;17.70;;;8.10;99.90;;;;;;5069694;28;20610;-53
2022/11/15 00:19:02;;;;;;;27.75;18.85;;;8.10;99.90;;;;;;5057318;28;20037;-52
2022/11/15 00:21:48;;;;;;;23.17;17.98;;;8.10;99.90;;;;;;5070308;28;20116;-53
2022/11/15 00:24:34;;;;;;;23.77;17.60;;;8.10;99.90;;;;;;5050497;28;20094;-58
2022/11/15 00:27:20;;;;;;;30.05;19.42;;;8.10;99.90;;;;;;5050962;28;20167;-60
2022/11/15 00:30:06;;;;;;;26.13;19.38;;;8.10;99.90;;;;;;5050412;28;20112;-60
2022/11/15 00:32:52;;;;;;;28.15;19.23;;;8.10;99.90;;;;;;5063064;28;20397;-60
2022/11/15 00:35:38;;;;;;;23.30;17.33;;;8.10;99.90;;;;;;5056265;28;20025;-60
2022/11/15 00:38:24;;;;;;;22.15;17.92;;;8.00;99.90;;;;;;5070031;28;20460;-60
2022/11/15 00:41:10;;;;;;;24.98;18.25;;;8.10;99.90;;;;;;5070182;28;20489;-60
2022/11/15 00:43:56;;;;;;;25.08;18.67;;;8.10;99.90;;;;;;5070927;28;20044;-59
2022/11/15 00:46:42;;;;;;;22.65;16.65;;;8.10;99.90;;;;;;5071166;28;20024;-59
2022/11/15 00:49:27;;;;;;;23.05;17.27;;;8.20;99.90;;;;;;5071882;28;20021;-55
2022/11/15 00:52:13;;;;;;;24.17;18.60;;;8.10;99.90;;;;;;5071285;28;20270;-62
2022/11/15 00:54:59;;;;;;;22.45;17.63;;;8.20;99.90;;;;;;5057879;28;20025;-60
2022/11/15 00:57:46;;;;;;;21.45;17.05;;;8.20;99.90;;;;;;5071727;28;20032;-58
2022/11/15 01:00:32;;;;;;;23.52;17.98;;;8.20;99.90;;;;;;5071683;28;20019;-58
2022/11/15 01:03:18;;;;;;;25.63;18.52;;;8.20;99.90;;;;;;5057506;28;20082;-62
2022/11/15 01:06:04;;;;;;;23.38;18.23;;;8.20;99.90;;;;;;5056756;28;20135;-61
2022/11/15 01:08:50;;;;;;;23.80;17.50;;;8.10;99.90;;;;;;5071380;28;20124;-58
2022/11/15 01:11:36;;;;;;;22.80;17.15;;;8.10;99.90;;;;;;5071371;28;20079;-57
2022/11/15 01:14:22;;;;;;;20.45;16.33;;;8.10;99.90;;;;;;5071474;28;20083;-60
2022/11/15 01:17:08;;;;;;;22.83;18.80;;;8.20;99.90;;;;;;5070925;28;20060;-59
2022/11/15 01:19:54;;;;;;;24.60;18.80;;;8.10;99.90;;;;;;5070052;28;20025;-59
2022/11/15 01:22:40;;;;;;;22.20;17.17;;;8.10;99.90;;;;;;5050513;28;20057;-58
2022/11/15 01:25:26;;;;;;;24.70;18.70;;;8.10;99.90;;;;;;5052987;28;20038;-57
2022/11/15 01:28:12;;;;;;;21.38;16.73;;;8.00;99.90;;;;;;5070317;28;20501;-61
2022/11/15 01:30:59;;;;;;;22.80;17.35;;;8.00;99.90;;;;;;5056625;28;20040;-59
2022/11/15 01:33:46;;;;;;;23.55;17.17;;;8.00;99.90;;;;;;5071634;28;20507;-56
2022/11/15 01:36:32;;;;;;;22.52;17.25;;;8.00;99.90;;;;;;5051273;28;20041;-60
2022/11/15 01:39:18;;;;;;;24.42;17.83;;;8.00;99.90;;;;;;5052998;28;20035;-59
2022/11/15 01:42:04;;;;;;;25.02;19.33;;;8.00;99.90;;;;;;5070318;28;20063;-64
2022/11/15 01:44:51;;;;;;;23.05;17.00;;;8.00;99.90;;;;;;5056035;28;20485;-59
2022/11/15 01:47:42;;;;;;;24.60;18.48;;;8.00;99.90;;;;;;5070734;28;20028;-58
2022/11/15 01:50:32;;;;;;;22.27;16.83;;;8.00;99.90;;;;;;5070775;28;20115;-60
2022/11/15 01:53:20;;;;;;;24.77;18.17;;;8.10;99.90;;;;;;5070234;28;20381;-59
2022/11/15 01:56:12;;;;;;;21.95;16.85;;;8.10;99.90;;;;;;5070356;28;20103;-59
2022/11/15 01:59:02;;;;;;;22.58;17.23;;;8.10;99.90;;;;;;5070430;28;20024;-60
2022/11/15 02:01:51;;;;;;;23.58;17.88;;;8.10;99.90;;;;;;5052169;28;20078;-61
2022/11/15 02:04:42;;;;;;;26.05;16.27;;;8.10;99.90;;;;;;5052699;28;20036;-60
2022/11/15 02:07:29;;;;;;;22.58;16.40;;;8.10;99.90;;;;;;5070835;28;20078;-60
2022/11/15 02:10:21;;;;;;;20.67;15.45;;;8.10;99.90;;;;;;5070752;28;20087;-61
2022/11/15 02:13:07;;;;;;;20.58;15.80;;;8.10;99.90;;;;;;5071707;28;20154;-61
2022/11/15 02:16:09;;;;;;;25.02;17.02;;;8.00;99.90;;;;;;5070694;28;20107;-58
2022/11/15 02:19:26;;;;;;;21.38;15.23;;;8.00;99.90;;;;;;5072222;28;20021;-60
2022/11/15 02:22:33;;;;;;;20.98;15.25;;;8.00;99.90;;;;;;5037021;28;20021;-59
2022/11/15 02:25:22;;;;;;;21.80;16.33;;;8.00;99.90;;;;;;5057410;28;20100;-59
2022/11/15 02:28:33;;;;;;;21.42;15.45;;;8.00;99.90;;;;;;5070774;28;20127;-57
2022/11/15 02:32:01;;;;;;;21.48;17.20;;;8.00;99.90;;;;;;5070392;28;20020;-59
2022/11/15 02:34:54;;;;;;;21.40;15.25;;;8.00;99.90;;;;;;4968625;28;20334;-59
2022/11/15 02:38:09;;;;;;;22.10;16.00;;;8.00;99.90;;;;;;5039066;28;20021;-59
2022/11/15 02:41:14;;;;;;;22.23;16.15;;;8.00;99.90;;;;;;5068783;28;20056;-59
2022/11/15 02:44:13;;;;;;;22.25;17.15;;;8.00;99.90;;;;;;5074408;28;20095;-61
2022/11/15 02:47:13;;;;;;;24.77;15.68;;;8.00;99.90;;;;;;5055890;28;20030;-59
2022/11/15 02:50:02;;;;;;;21.15;15.77;;;8.10;99.90;;;;;;5061034;28;20036;-59
2022/11/15 02:52:49;;;;;;;22.70;15.63;;;8.00;99.90;;;;;;5074969;28;20055;-59
2022/11/15 02:55:40;;;;;;;21.35;16.13;;;8.00;99.90;;;;;;5073741;28;20117;-60
2022/11/15 02:58:32;;;;;;;20.83;15.68;;;8.00;99.90;;;;;;5073728;28;20047;-60
2022/11/15 03:01:42;;;;;;;22.88;16.00;;;8.00;99.90;;;;;;5074214;28;20510;-61
2022/11/15 03:04:49;;;;;;;21.88;16.38;;;8.00;99.90;;;;;;5074879;28;20032;-58
2022/11/15 03:07:47;;;;;;;21.55;16.67;;;8.00;99.90;;;;;;5074356;28;20032;-59
2022/11/15 03:11:09;;;;;;;19.45;15.38;;;8.00;99.90;;;;;;5053590;28;20029;-58
2022/11/15 03:13:57;;;;;;;20.17;15.55;;;8.00;99.90;;;;;;5027949;28;20059;-61
2022/11/15 03:16:58;;;;;;;21.08;15.65;;;8.00;99.90;;;;;;5072470;28;20029;-60
2022/11/15 03:19:47;;;;;;;22.23;15.90;;;8.00;99.90;;;;;;5073268;28;20040;-58
2022/11/15 03:22:37;;;;;;;25.10;15.90;;;8.00;99.90;;;;;;5073196;28;20052;-58
2022/11/15 03:25:26;;;;;;;20.45;15.27;;;8.00;99.90;;;;;;5074086;28;20033;-60
2022/11/15 03:28:19;;;;;;;20.77;15.77;;;8.00;99.90;;;;;;5073484;28;20051;-57
2022/11/15 03:31:46;;;;;;;22.08;16.38;;;7.90;99.90;;;;;;5073891;28;20085;-54
2022/11/15 03:34:24;;;;;;;22.65;16.33;;;7.90;99.90;;;;;;5061155;28;20032;-59
2022/11/15 03:37:14;;;;;;;19.05;16.02;;;8.00;99.90;;;;;;5073101;28;20185;-59
2022/11/15 03:40:01;;;;;;;21.33;15.07;;;7.90;99.90;;;;;;5074097;28;20032;-60
2022/11/15 03:42:57;;;;;;;19.73;15.23;;;7.90;99.90;;;;;;5073296;28;20480;-58
2022/11/15 03:45:50;;;;;;;23.35;15.98;;;7.90;99.90;;;;;;5080246;28;20028;-58
2022/11/15 03:48:44;;;;;;;20.83;14.45;;;7.90;99.90;;;;;;5068019;28;20032;-57
2022/11/15 03:51:30;;;;;;;21.67;15.32;;;7.90;99.90;;;;;;5084021;28;20029;-54
2022/11/15 03:54:16;;;;;;;20.73;15.18;;;7.90;99.90;;;;;;5081524;28;20035;-59
2022/11/15 03:57:02;;;;;;;20.27;15.50;;;8.00;99.90;;;;;;5079308;28;20400;-57
2022/11/15 03:59:48;;;;;;;20.40;16.30;;;7.90;99.90;;;;;;5071633;28;20028;-61
2022/11/15 04:02:34;;;;;;;22.23;16.05;;;7.90;99.90;;;;;;5072096;28;20703;-59
2022/11/15 04:05:20;;;;;;;22.15;16.23;;;7.90;99.90;;;;;;5071677;28;20029;-58
2022/11/15 04:08:05;;;;;;;20.00;15.88;;;7.90;99.90;;;;;;5059242;28;20024;-58
2022/11/15 04:10:51;;;;;;;21.40;15.75;;;7.90;99.90;;;;;;5071725;28;20029;-59
2022/11/15 04:13:37;;;;;;;21.10;15.75;;;7.90;99.90;;;;;;5072064;28;20032;-59
2022/11/15 04:16:23;;;;;;;20.33;15.07;;;7.90;99.90;;;;;;5073111;28;20108;-60
2022/11/15 04:25:19;;;;;;;22.98;14.93;;;7.80;99.90;;;;;;5053095;28;20045;-59
2022/11/15 04:28:05;;;;;;;24.10;16.38;;;7.90;99.90;;;;;;5042966;28;20459;-61
2022/11/15 04:30:51;;;;;;;22.33;16.48;;;7.90;99.90;;;;;;5071036;28;20111;-60
2022/11/15 04:33:37;;;;;;;42.17;25.48;;;7.90;99.90;;;;;;5071609;28;20083;-58
2022/11/15 04:39:28;;;;;;;32.57;22.07;;;7.80;99.90;;;;;;5072696;28;20025;-58
2022/11/15 04:42:14;;;;;;;24.27;18.25;;;7.80;99.90;;;;;;5071483;28;20032;-57
2022/11/15 04:45:00;;;;;;;23.23;15.57;;;7.80;99.90;;;;;;5071218;28;20031;-59
2022/11/15 04:47:46;;;;;;;21.13;16.70;;;7.70;99.90;;;;;;5071289;28;20059;-56
2022/11/15 04:50:32;;;;;;;21.35;16.60;;;7.70;99.90;;;;;;5064256;28;20032;-61
2022/11/15 04:53:17;;;;;;;21.27;17.00;;;7.80;99.90;;;;;;5057796;28;20021;-60
2022/11/15 04:56:04;;;;;;;25.05;16.27;;;7.80;99.90;;;;;;5044623;28;20104;-54
2022/11/15 04:58:50;;;;;;;23.50;16.83;;;7.80;99.90;;;;;;5070974;28;20117;-59
2022/11/15 05:01:36;;;;;;;20.48;16.10;;;7.70;99.90;;;;;;5071952;28;20028;-56
2022/11/15 05:04:22;;;;;;;21.30;15.23;;;7.70;99.90;;;;;;5070476;28;20074;-59
2022/11/15 05:07:08;;;;;;;34.05;25.75;;;7.70;99.90;;;;;;5071398;28;20021;-57
2022/11/15 05:09:54;;;;;;;26.88;19.65;;;7.80;99.90;;;;;;5057497;28;20229;-58
2022/11/15 05:12:40;;;;;;;28.17;19.80;;;7.70;99.90;;;;;;5070714;28;20032;-59
2022/11/15 05:15:25;;;;;;;24.15;17.08;;;7.70;99.90;;;;;;5071362;28;20029;-61
2022/11/15 05:18:12;;;;;;;19.05;16.15;;;7.80;99.90;;;;;;5071269;28;20017;-59
2022/11/15 05:21:05;;;;;;;22.58;16.20;;;7.90;99.90;;;;;;5071837;28;20040;-61
2022/11/15 05:23:51;;;;;;;23.20;16.13;;;7.80;99.90;;;;;;5072774;28;20539;-61
2022/11/15 05:26:37;;;;;;;19.60;14.77;;;7.80;99.90;;;;;;5059142;28;20032;-54
2022/11/15 05:29:23;;;;;;;20.67;15.32;;;7.80;99.90;;;;;;5071488;28;20032;-58
2022/11/15 05:32:11;;;;;;;28.58;19.67;;;7.70;99.90;;;;;;5057210;28;20060;-59
2022/11/15 05:34:57;;;;;;;24.25;16.88;;;7.70;99.90;;;;;;5071454;28;20041;-59
2022/11/15 05:37:43;;;;;;;21.50;15.70;;;7.70;99.90;;;;;;5071312;28;20067;-59
2022/11/15 05:40:31;;;;;;;21.95;16.60;;;7.60;99.90;;;;;;5056631;28;20028;-58
2022/11/15 05:43:17;;;;;;;21.63;16.83;;;7.60;99.90;;;;;;5072076;28;20028;-59
2022/11/15 05:46:04;;;;;;;21.92;15.93;;;7.60;99.90;;;;;;5072216;28;20078;-57
2022/11/15 05:48:52;;;;;;;20.83;16.15;;;7.60;99.90;;;;;;5071489;28;20025;-55
2022/11/15 05:51:38;;;;;;;22.55;14.82;;;7.60;99.90;;;;;;5070403;28;20032;-58
2022/11/15 05:54:25;;;;;;;21.65;16.38;;;7.70;99.90;;;;;;5072132;28;20036;-60
2022/11/15 05:57:11;;;;;;;21.42;16.20;;;7.70;99.90;;;;;;5071342;28;20024;-60
2022/11/15 05:59:58;;;;;;;22.10;15.20;;;7.70;99.90;;;;;;5059318;28;20025;-49
2022/11/15 06:02:44;;;;;;;22.05;14.23;;;7.70;99.90;;;;;;5060143;28;20171;-54
2022/11/15 06:05:30;;;;;;;20.48;14.85;;;7.70;99.90;;;;;;5054187;28;20064;-51
2022/11/15 06:08:16;;;;;;;21.70;15.18;;;7.70;99.90;;;;;;5068592;28;20056;-50
2022/11/15 06:11:06;;;;;;;22.55;14.88;;;7.70;99.90;;;;;;5055171;28;20078;-51
2022/11/15 06:13:52;;;;;;;20.70;14.60;;;7.70;99.90;;;;;;5073238;28;20036;-55
2022/11/15 06:16:38;;;;;;;21.63;15.68;;;7.70;99.90;;;;;;5072807;28;20025;-53
2022/11/15 06:19:24;;;;;;;23.50;15.07;;;7.70;99.90;;;;;;5071461;28;20113;-55
2022/11/15 06:22:10;;;;;;;21.70;15.15;;;7.70;99.90;;;;;;5053010;28;20037;-52
2022/11/15 06:24:56;;;;;;;21.85;14.70;;;7.70;99.90;;;;;;5038841;28;20029;-55
2022/11/15 06:27:42;;;;;;;36.05;15.73;;;7.80;99.90;;;;;;5058645;28;20127;-55
2022/11/15 06:30:28;;;;;;;29.73;16.02;;;7.80;99.90;;;;;;5057755;28;20047;-55
2022/11/15 06:33:14;;;;;;;24.77;15.77;;;7.80;99.90;;;;;;5072383;28;20098;-50
2022/11/15 06:36:04;;;;;;;25.05;14.68;;;7.80;99.90;;;;;;5044575;28;20021;-53
2022/11/15 06:38:50;;;;;;;21.77;15.13;;;7.80;99.90;;;;;;5072103;28;20025;-53
2022/11/15 06:41:36;;;;;;;23.05;15.15;;;7.80;99.90;;;;;;5072057;28;20029;-48
2022/11/15 06:44:25;;;;;;;23.77;14.13;;;7.90;99.90;;;;;;5072596;28;20024;-51
2022/11/15 06:47:11;;;;;;;36.00;17.15;;;7.90;99.90;;;;;;5071033;28;20029;-48
2022/11/15 06:49:56;;;;;;;23.55;15.20;;;7.90;99.90;;;;;;5071736;28;20039;-50
2022/11/15 06:52:42;;;;;;;30.17;15.77;;;7.90;99.90;;;;;;5071623;28;20064;-57
2022/11/15 06:55:29;;;;;;;25.05;18.08;;;7.90;99.90;;;;;;5071718;28;20116;-50
2022/11/15 06:58:15;;;;;;;26.25;15.77;;;7.90;99.90;;;;;;5053317;28;20029;-53
2022/11/15 07:01:09;;;;;;;20.30;14.73;;;8.00;99.90;;;;;;5064076;28;20031;-55
2022/11/15 07:03:55;;;;;;;19.45;15.02;;;8.00;99.90;;;;;;5057797;28;20028;-54
2022/11/15 07:06:41;;;;;;;31.00;17.10;;;8.00;99.90;;;;;;5071094;28;20608;-49
2022/11/15 07:09:27;;;;;;;26.15;18.20;;;8.00;99.90;;;;;;5071372;28;20426;-54
2022/11/15 07:12:13;;;;;;;25.38;17.27;;;8.10;99.90;;;;;;5071186;28;20028;-55
2022/11/15 07:14:59;;;;;;;22.92;16.23;;;8.10;99.90;;;;;;5056920;28;20432;-57
2022/11/15 07:17:45;;;;;;;25.42;16.92;;;8.10;99.90;;;;;;5070291;28;20465;-55
2022/11/15 07:20:31;;;;;;;35.38;17.55;;;8.20;99.90;;;;;;5070554;28;20431;-59
2022/11/15 07:23:17;;;;;;;27.85;16.48;;;8.20;99.90;;;;;;5069650;28;20028;-54
2022/11/15 07:26:03;;;;;;;29.10;17.23;;;8.20;99.90;;;;;;5056358;28;20032;-55
2022/11/15 07:28:49;;;;;;;24.23;15.85;;;8.30;99.90;;;;;;5070040;28;20043;-59
2022/11/15 07:31:35;;;;;;;27.75;20.38;;;8.30;99.90;;;;;;5071133;28;20043;-52
2022/11/15 07:34:21;;;;;;;26.17;17.83;;;8.30;99.90;;;;;;5070565;28;20517;-52
2022/11/15 07:37:07;;;;;;;25.27;16.88;;;8.30;99.90;;;;;;5069474;28;20028;-55
2022/11/15 07:39:53;;;;;;;21.77;16.65;;;8.40;99.90;;;;;;5056477;28;20422;-59
2022/11/15 07:42:55;;;;;;;24.80;15.40;;;8.40;99.90;;;;;;5065199;28;20398;-55
2022/11/15 07:45:45;;;;;;;21.15;15.32;;;8.50;99.90;;;;;;5065351;28;20021;-53
2022/11/15 07:48:31;;;;;;;27.10;16.33;;;8.50;99.90;;;;;;5066606;28;20049;-54
2022/11/15 07:51:17;;;;;;;22.45;14.57;;;8.60;99.90;;;;;;5052356;28;20040;-57
2022/11/15 07:54:03;;;;;;;20.58;15.23;;;8.60;99.90;;;;;;5038361;28;20497;-58
2022/11/15 07:56:49;;;;;;;22.63;15.13;;;8.70;99.90;;;;;;5063955;28;20037;-57
2022/11/15 07:59:34;;;;;;;26.63;15.30;;;8.70;99.90;;;;;;5070705;28;20115;-57
2022/11/15 08:02:21;;;;;;;24.92;15.50;;;8.80;99.90;;;;;;5070444;28;20103;-57
2022/11/15 08:05:07;;;;;;;27.02;16.88;;;8.80;99.90;;;;;;5051500;28;20409;-56
2022/11/15 08:07:55;;;;;;;25.58;15.07;;;8.90;99.90;;;;;;5064880;28;20437;-52
2022/11/15 08:10:41;;;;;;;22.65;14.55;;;8.90;99.90;;;;;;5072786;28;20024;-49
2022/11/15 08:13:27;;;;;;;25.70;14.30;;;9.00;99.90;;;;;;5058349;28;20064;-52
2022/11/15 08:16:13;;;;;;;26.45;16.52;;;9.00;99.90;;;;;;5064309;28;20056;-53
2022/11/15 08:19:00;;;;;;;26.35;15.85;;;8.90;99.90;;;;;;5068080;28;20032;-58
2022/11/15 08:21:46;;;;;;;26.42;15.80;;;9.10;99.90;;;;;;5066307;28;20040;-57
2022/11/15 08:24:32;;;;;;;23.92;16.40;;;9.20;99.90;;;;;;5076007;28;20037;-61
2022/11/15 08:27:18;;;;;;;21.90;15.07;;;9.20;99.90;;;;;;5036185;28;20025;-58
2022/11/15 08:30:04;;;;;;;22.85;15.48;;;9.30;99.90;;;;;;5078138;28;20036;-58
2022/11/15 08:32:52;;;;;;;26.20;16.58;;;9.30;99.90;;;;;;5078177;28;20036;-56
2022/11/15 08:35:39;;;;;;;22.10;15.25;;;9.40;99.90;;;;;;5058031;28;20075;-56
2022/11/15 08:38:26;;;;;;;30.10;15.88;;;9.50;99.90;;;;;;5057835;28;20055;-56
2022/11/15 08:41:27;;;;;;;27.15;15.32;;;9.50;99.90;;;;;;5051930;28;20067;-56
2022/11/15 08:44:13;;;;;;;24.38;14.75;;;9.60;99.90;;;;;;5052781;28;20060;-56
2022/11/15 08:46:59;;;;;;;21.25;13.80;;;9.70;99.90;;;;;;5052215;28;20036;-53
2022/11/15 08:49:45;;;;;;;24.65;14.48;;;9.80;99.90;;;;;;5049103;28;20051;-53
2022/11/15 08:52:31;;;;;;;25.27;15.90;;;9.90;99.90;;;;;;5050319;28;20047;-52
2022/11/15 08:55:17;;;;;;;18.63;13.90;;;10.00;99.90;;;;;;5035640;28;20044;-54
2022/11/15 08:58:03;;;;;;;17.25;13.27;;;10.10;99.90;;;;;;5058381;28;20019;-61
2022/11/15 09:00:49;;;;;;;20.50;14.35;;;10.20;99.90;;;;;;5065585;28;20103;-57
2022/11/15 09:03:35;;;;;;;17.70;13.50;;;10.20;99.90;;;;;;5071627;28;20090;-58
2022/11/15 09:06:21;;;;;;;19.58;13.57;;;10.30;99.90;;;;;;5064466;28;20032;-53
2022/11/15 09:09:07;;;;;;;19.25;13.25;;;10.40;99.90;;;;;;5050455;28;20025;-63
2022/11/15 09:11:53;;;;;;;19.73;13.68;;;10.50;99.90;;;;;;5049965;28;20145;-58
2022/11/15 09:14:39;;;;;;;19.88;13.95;;;10.60;99.90;;;;;;5055535;28;20051;-59
2022/11/15 09:17:25;;;;;;;18.73;14.50;;;10.60;99.90;;;;;;5071789;28;20052;-57
2022/11/15 09:20:11;;;;;;;19.30;14.07;;;10.70;99.90;;;;;;5078963;28;20043;-59
2022/11/15 09:23:01;;;;;;;21.25;14.80;;;10.80;99.90;;;;;;5048584;28;20107;-59
2022/11/15 09:25:47;;;;;;;19.50;14.70;;;10.90;99.90;;;;;;5056437;28;20048;-62
2022/11/15 09:28:34;;;;;;;21.38;14.73;;;11.00;99.90;;;;;;5070324;28;20063;-59
2022/11/15 09:31:20;;;;;;;22.77;15.80;;;11.00;99.90;;;;;;5068745;28;20047;-59
2022/11/15 09:34:06;;;;;;;21.27;15.85;;;11.10;99.90;;;;;;5049845;28;20240;-58
2022/11/15 09:36:52;;;;;;;20.00;14.95;;;11.20;99.90;;;;;;5035470;28;20021;-59
2022/11/15 09:39:38;;;;;;;17.20;13.38;;;11.20;99.90;;;;;;5049945;28;20064;-59
2022/11/15 09:43:10;;;;;;;18.02;13.35;;;11.30;99.90;;;;;;5035485;28;20029;-58
2022/11/15 09:46:27;;;;;;;14.55;11.60;;;11.50;99.90;;;;;;5050745;28;20439;-60
2022/11/15 09:49:16;;;;;;;17.23;11.77;;;11.50;99.90;;;;;;5054577;28;20051;-61
2022/11/15 09:52:03;;;;;;;15.40;11.93;;;11.60;99.90;;;;;;5053460;28;20098;-62
2022/11/15 09:54:51;;;;;;;16.52;10.93;;;11.70;99.90;;;;;;5053245;28;20021;-60
2022/11/15 09:58:00;;;;;;;18.42;10.30;;;11.80;99.90;;;;;;5055366;28;20104;-61
2022/11/15 10:00:52;;;;;;;18.42;10.10;;;11.80;99.90;;;;;;5072562;28;20035;-60
2022/11/15 10:03:41;;;;;;;17.35;10.55;;;11.90;99.90;;;;;;5073926;28;20074;-61
2022/11/15 10:06:27;;;;;;;16.02;9.85;;;12.00;99.90;;;;;;5063291;28;20032;-61
2022/11/15 10:09:29;;;;;;;17.33;11.70;;;12.00;99.90;;;;;;5072831;28;20035;-60
2022/11/15 10:12:15;;;;;;;20.33;10.68;;;12.10;99.90;;;;;;5072604;28;20124;-59
2022/11/15 10:15:06;;;;;;;15.85;9.57;;;12.10;99.90;;;;;;5072158;28;20040;-61
2022/11/15 10:18:16;;;;;;;15.70;9.70;;;12.20;99.90;;;;;;5073743;28;20477;-62
2022/11/15 10:21:21;;;;;;;13.52;9.57;;;12.30;99.90;;;;;;5073459;28;20032;-60
2022/11/15 10:24:12;;;;;;;15.80;10.55;;;12.40;99.90;;;;;;5072666;28;20025;-60
2022/11/15 10:26:58;;;;;;;14.05;10.25;;;12.50;99.90;;;;;;5072422;28;20041;-60
2022/11/15 10:29:46;;;;;;;15.70;10.93;;;12.50;99.90;;;;;;5072392;28;20404;-62
2022/11/15 10:32:35;;;;;;;11.18;8.80;;;12.50;99.90;;;;;;5072614;28;20024;-62
2022/11/15 10:35:28;;;;;;;11.90;9.00;;;12.50;99.90;;;;;;5073463;28;20120;-62
2022/11/15 10:38:14;;;;;;;15.27;9.38;;;12.60;99.90;;;;;;5073751;28;20021;-60
2022/11/15 10:41:07;;;;;;;17.08;8.23;;;12.70;99.80;;;;;;5073358;28;20554;-56
2022/11/15 10:44:17;;;;;;;12.35;8.27;;;12.80;99.70;;;;;;5073186;28;20503;-59
2022/11/15 10:47:16;;;;;;;12.25;8.70;;;12.90;99.50;;;;;;5074013;28;20028;-61
2022/11/15 10:50:28;;;;;;;10.38;8.30;;;12.90;99.50;;;;;;5071898;28;20073;-59
2022/11/15 10:53:32;;;;;;;17.77;8.93;;;12.90;99.50;;;;;;5058890;28;20400;-61
2022/11/15 10:56:21;;;;;;;13.10;8.43;;;13.00;99.20;;;;;;5059531;28;20056;-60
2022/11/15 10:59:16;;;;;;;15.93;9.15;;;13.00;99.30;;;;;;5071760;28;20013;-62
2022/11/15 11:02:22;;;;;;;14.18;8.57;;;13.10;99.00;;;;;;5071323;28;20021;-57
2022/11/15 11:05:37;;;;;;;11.88;7.95;;;13.10;99.00;;;;;;5072147;28;20499;-61
2022/11/15 11:08:24;;;;;;;17.63;8.43;;;13.20;98.80;;;;;;5052208;28;20412;-61
2022/11/15 11:11:10;;;;;;;12.18;8.68;;;13.10;99.00;;;;;;5052486;28;20390;-59
2022/11/15 11:14:22;;;;;;;10.82;7.65;;;13.10;98.90;;;;;;5051545;28;20025;-60
2022/11/15 11:17:11;;;;;;;11.55;8.40;;;13.20;99.10;;;;;;5051719;28;20017;-61
2022/11/15 11:20:03;;;;;;;11.35;7.95;;;13.30;99.00;;;;;;5037017;28;20024;-59
2022/11/15 11:23:13;;;;;;;12.70;7.93;;;13.30;99.00;;;;;;5052469;28;20490;-62
2022/11/15 11:26:29;;;;;;;13.80;7.85;;;13.30;98.90;;;;;;5051204;28;20025;-58
2022/11/15 11:29:24;;;;;;;;;;;13.40;98.90;;;;;;5051461;28;20269;-61
2022/11/15 11:32:19;;;;;;;9.80;6.82;;;13.50;98.70;;;;;;5050421;28;20031;-61
2022/11/15 11:35:30;;;;;;;9.30;7.28;;;13.40;98.60;;;;;;5063010;28;20028;-57
2022/11/15 11:38:31;;;;;;;10.93;6.63;;;13.50;98.70;;;;;;5070925;28;20039;-59
2022/11/15 11:41:47;;;;;;;10.38;7.88;;;13.50;98.80;;;;;;5071388;28;20021;-60
2022/11/15 11:44:56;;;;;;;9.52;7.30;;;13.60;98.70;;;;;;5070814;28;20021;-62
2022/11/15 11:48:23;;;;;;;13.35;7.65;;;13.70;98.50;;;;;;5070442;28;20489;-57
2022/11/15 11:51:25;;;;;;;11.15;7.28;;;13.70;98.60;;;;;;5050352;28;20060;-54
2022/11/15 11:54:20;;;;;;;9.57;7.22;;;13.80;98.50;;;;;;5070156;28;20029;-56
2022/11/15 11:57:17;;;;;;;11.30;7.63;;;13.90;98.40;;;;;;5070350;28;20280;-59
2022/11/15 12:00:03;;;;;;;8.80;6.65;;;14.00;98.30;;;;;;5070010;28;20090;-55
2022/11/15 12:03:07;;;;;;;8.73;6.68;;;13.90;98.30;;;;;;5070126;28;20021;-53
2022/11/15 12:06:18;;;;;;;7.72;6.35;;;14.00;98.00;;;;;;5070417;28;20094;-51
2022/11/15 12:09:33;;;;;;;12.32;7.03;;;14.10;97.70;;;;;;5069214;28;20021;-57
2022/11/15 12:12:56;;;;;;;21.42;7.75;;;14.10;97.80;;;;;;5070000;28;20017;-53
2022/11/15 12:15:50;;;;;;;13.27;8.38;;;14.20;97.50;;;;;;5069095;28;20060;-57
2022/11/15 12:18:36;;;;;;;10.15;6.78;;;14.30;97.20;;;;;;5070189;28;20395;-53
2022/11/15 12:21:47;;;;;;;7.20;5.93;;;14.30;97.50;;;;;;5068864;28;20377;-52
2022/11/15 12:24:45;;;;;;;11.57;7.00;;;14.40;97.10;;;;;;5069121;28;20024;-56
2022/11/15 12:27:43;;;;;;;13.90;6.85;;;14.50;96.90;;;;;;5069873;28;20043;-54
2022/11/15 12:30:51;;;;;;;13.95;6.60;;;14.50;96.90;;;;;;5070069;28;20515;-56
2022/11/15 12:33:41;;;;;;;9.38;6.45;;;14.60;96.80;;;;;;5070108;28;20515;-57
2022/11/15 12:36:41;;;;;;;18.60;7.60;;;14.80;96.70;;;;;;5068390;28;20273;-50
2022/11/15 12:40:18;;;;;;;12.40;7.50;;;15.00;96.20;;;;;;5068144;28;20023;-57
2022/11/15 12:43:05;;;;;;;;;;;15.10;96.20;;;;;;5055531;28;20028;-52
2022/11/15 12:45:51;;;;;;;11.30;5.93;;;15.10;95.50;;;;;;5056228;28;19999;-57
2022/11/15 12:48:37;;;;;;;13.00;6.45;;;15.10;95.60;;;;;;5022250;28;20087;-58
2022/11/15 12:51:43;;;;;;;7.30;5.20;;;15.20;95.60;;;;;;5049299;28;20033;-56
2022/11/15 12:54:52;;;;;;;7.47;5.50;;;15.30;95.40;;;;;;5035434;28;20417;-56
2022/11/15 12:57:40;;;;;;;8.15;6.10;;;15.40;95.30;;;;;;5035418;28;20378;-59
2022/11/15 13:00:29;;;;;;;7.60;5.50;;;15.60;95.00;;;;;;5050324;28;20021;-55
2022/11/15 13:03:23;;;;;;;8.23;5.63;;;15.70;94.30;;;;;;5049617;28;20436;-58
2022/11/15 13:06:40;;;;;;;8.27;4.70;;;15.70;94.10;;;;;;5049099;28;20029;-58
2022/11/15 13:09:36;;;;;;;8.63;5.05;;;15.80;93.80;;;;;;5049517;28;20116;-56
2022/11/15 13:12:21;;;;;;;;;;;15.80;93.70;;;;;;5055860;28;20497;-59
2022/11/15 13:15:13;;;;;;;8.70;4.82;;;16.00;93.40;;;;;;5056077;28;20265;-57
2022/11/15 13:18:32;;;;;;;12.68;5.25;;;16.10;92.90;;;;;;5070138;28;20024;-60
2022/11/15 13:24:26;;;;;;;12.55;5.40;;;16.30;93.50;;;;;;5070199;28;20580;-57
2022/11/15 13:27:19;;;;;;;9.00;5.30;;;16.40;93.30;;;;;;5041258;28;20509;-59
2022/11/15 13:30:05;;;;;;;5.70;4.72;;;16.50;93.00;;;;;;5068658;28;20028;-51
2022/11/15 13:32:52;;;;;;;10.43;5.07;;;16.70;93.10;;;;;;5055101;28;20510;-57
2022/11/15 13:35:46;;;;;;;7.43;4.72;;;16.90;92.40;;;;;;5068773;28;20232;-54
2022/11/15 13:38:38;;;;;;;7.05;4.80;;;16.90;92.10;;;;;;5068652;28;20489;-57
2022/11/15 13:41:27;;;;;;;7.97;4.57;;;16.80;91.80;;;;;;5068329;28;20060;-59
2022/11/15 13:44:27;;;;;;;7.82;5.10;;;16.90;92.30;;;;;;5069410;28;20496;-58
2022/11/15 13:47:14;;;;;;;7.95;5.00;;;17.20;91.90;;;;;;5068593;28;20033;-57
2022/11/15 13:50:03;;;;;;;7.03;4.90;;;17.60;91.60;;;;;;5067689;28;20374;-57
2022/11/15 13:52:50;;;;;;;8.57;4.72;;;18.00;91.30;;;;;;5067245;28;20162;-57
2022/11/15 13:55:36;;;;;;;8.65;6.40;;;18.40;90.80;;;;;;5067697;28;20064;-58
2022/11/15 13:58:22;;;;;;;8.52;6.45;;;19.00;90.00;;;;;;5068122;28;20093;-57
2022/11/15 14:01:16;;;;;;;9.75;6.75;;;19.30;89.00;;;;;;5068032;28;20059;-53
2022/11/15 14:04:03;;;;;;;10.73;6.93;;;19.40;88.10;;;;;;5069664;28;20051;-53
2022/11/15 14:06:53;;;;;;;9.18;5.45;;;19.70;87.60;;;;;;5070786;28;20381;-52
2022/11/15 14:09:40;;;;;;;10.90;5.22;;;19.90;87.00;;;;;;5072708;28;20029;-54
2022/11/15 14:12:27;;;;;;;8.88;5.45;;;19.90;86.30;;;;;;5075023;28;20036;-60
2022/11/15 14:15:28;;;;;;;14.02;5.93;;;19.30;86.80;;;;;;5084559;28;20029;-58
2022/11/15 14:18:42;;;;;;;10.18;6.03;;;18.50;88.50;;;;;;5081317;28;20024;-56
2022/11/15 14:21:28;;;;;;;7.07;5.30;;;17.70;90.20;;;;;;5079671;28;20104;-58
2022/11/15 14:24:21;;;;;;;7.05;5.35;;;17.00;91.10;;;;;;5068730;28;20064;-58
2022/11/15 14:27:26;;;;;;;11.13;6.32;;;16.60;91.80;;;;;;5068991;28;20024;-55
2022/11/15 14:30:14;;;;;;;19.88;8.30;;;16.10;92.60;;;;;;5068761;28;20031;-56
2022/11/15 14:33:01;;;;;;;21.30;9.23;;;15.70;93.60;;;;;;5070804;28;20501;-57
2022/11/15 14:35:46;;;;;;;19.42;7.60;;;15.30;94.20;;;;;;5072005;28;20041;-51
2022/11/15 14:38:32;;;;;;;8.68;6.40;;;15.20;94.40;;;;;;5072443;28;20021;-52
2022/11/15 14:41:21;;;;;;;10.95;6.00;;;15.00;94.90;;;;;;5069578;28;20447;-55
2022/11/15 14:44:10;;;;;;;9.40;6.30;;;14.70;95.20;;;;;;5058220;28;20036;-54
2022/11/15 14:46:56;;;;;;;8.90;5.90;;;14.70;95.30;;;;;;5072102;28;20493;-60
2022/11/15 14:49:43;;;;;;;10.98;5.78;;;14.70;95.30;;;;;;5072615;28;20091;-58
2022/11/15 14:52:34;;;;;;;10.00;5.55;;;14.70;95.30;;;;;;5072062;28;20120;-54
2022/11/15 14:55:31;;;;;;;11.82;6.95;;;14.60;95.40;;;;;;5072989;28;20051;-50